createdAt,value
2022-10-11T00:01:46.833Z,101905.66
2022-10-11T00:03:50.212Z,101896.19
2022-10-11T00:05:54.653Z,101906.16
2022-10-11T00:07:58.319Z,101893.25
2022-10-11T00:10:03.158Z,101908.78
2022-10-11T00:12:07.107Z,101901.91
2022-10-11T00:14:10.551Z,101910.91
2022-10-11T00:16:15.486Z,101919.78
2022-10-11T00:18:18.781Z,101917.28
2022-10-11T00:20:22.125Z,101922.47
2022-10-11T00:22:25.604Z,101916.53
2022-10-11T00:24:28.862Z,101920.19
2022-10-11T00:26:33.575Z,101926.66
2022-10-11T00:28:37.308Z,101920.41
2022-10-11T00:30:44.310Z,101928.16
2022-10-11T00:32:47.615Z,101929.81
2022-10-11T00:34:50.964Z,101928.56
2022-10-11T00:36:54.369Z,101926.78
2022-10-11T00:38:57.682Z,101925.75
2022-10-11T00:41:01.054Z,101919.78
2022-10-11T00:43:12.652Z,101927.56
2022-10-11T00:45:53.768Z,101928.22
2022-10-11T00:48:01.441Z,101931.78
2022-10-11T00:50:05.570Z,101929.31
2022-10-11T00:52:16.375Z,101934.53
2022-10-11T00:54:23.893Z,101928.78
2022-10-11T00:56:32.015Z,101934.00
2022-10-11T00:58:38.008Z,101934.63
2022-10-11T01:00:41.316Z,101936.19
2022-10-11T01:02:45.041Z,101943.75
2022-10-11T01:04:54.380Z,101931.34
2022-10-11T01:07:09.854Z,101934.50
2022-10-11T01:09:14.648Z,101937.50
2022-10-11T01:11:22.072Z,101940.44
2022-10-11T01:13:37.465Z,101942.59
2022-10-11T01:15:47.564Z,101943.56
2022-10-11T01:17:58.935Z,101910.28
2022-10-11T01:20:25.055Z,101936.81
2022-10-11T01:22:52.250Z,101942.50
2022-10-11T01:25:15.936Z,101940.06
2022-10-11T01:27:44.081Z,101938.50
2022-10-11T01:29:54.749Z,101942.75
2022-10-11T01:32:08.283Z,101938.78
2022-10-11T01:34:16.161Z,101930.97
2022-10-11T01:36:27.948Z,101941.78
2022-10-11T01:38:38.830Z,101952.38
2022-10-11T01:40:48.267Z,101957.34
2022-10-11T01:42:53.753Z,101950.13
2022-10-11T01:44:59.246Z,101957.28
2022-10-11T01:47:04.003Z,101900.00
2022-10-11T01:49:07.822Z,101961.75
2022-10-11T01:51:11.299Z,101965.31
2022-10-11T01:53:40.973Z,101955.25
2022-10-11T01:55:50.984Z,101952.22
2022-10-11T01:58:15.150Z,101947.22
2022-10-11T02:00:20.979Z,101963.59
2022-10-11T02:02:38.950Z,101932.03
2022-10-11T02:04:46.600Z,101962.50
2022-10-11T02:06:58.128Z,101964.56
2022-10-11T02:09:12.469Z,101960.50
2022-10-11T02:11:22.084Z,101956.97
2022-10-11T02:13:29.512Z,101890.13
2022-10-11T02:15:36.055Z,101959.59
2022-10-11T02:17:44.387Z,101960.41
2022-10-11T02:19:51.130Z,101968.34
2022-10-11T02:21:59.103Z,101961.66
2022-10-11T02:24:07.620Z,101963.22
2022-10-11T02:26:13.101Z,101953.69
2022-10-11T02:28:22.470Z,101953.03
2022-10-11T02:30:25.864Z,101957.88
2022-10-11T02:32:31.718Z,101969.22
2022-10-11T02:34:38.944Z,101965.00
2022-10-11T02:36:49.032Z,101968.81
2022-10-11T02:39:00.102Z,101965.53
2022-10-11T02:41:12.673Z,101966.88
2022-10-11T02:43:23.896Z,101968.97
2022-10-11T02:45:32.587Z,101969.78
2022-10-11T02:47:36.329Z,101968.75
2022-10-11T02:49:41.167Z,101970.78
2022-10-11T02:51:44.790Z,101904.22
2022-10-11T02:53:48.246Z,101978.38
2022-10-11T02:55:53.448Z,101975.81
2022-10-11T02:57:56.728Z,101980.88
2022-10-11T03:00:00.036Z,101982.19
2022-10-11T03:02:03.375Z,101973.47
2022-10-11T03:04:06.908Z,101984.06
2022-10-11T03:06:11.721Z,101987.63
2022-10-11T03:08:16.627Z,101984.63
2022-10-11T03:10:19.998Z,101989.25
2022-10-11T03:12:23.296Z,101976.66
2022-10-11T03:14:26.641Z,102000.00
2022-10-11T03:16:29.956Z,101992.94
2022-10-11T03:18:33.252Z,101994.22
2022-10-11T03:20:36.529Z,102000.41
2022-10-11T03:22:41.222Z,102002.03
2022-10-11T03:24:44.575Z,102007.06
2022-10-11T03:26:47.836Z,102000.25
2022-10-11T03:28:51.587Z,102006.03
2022-10-11T03:30:55.104Z,102014.56
2022-10-11T03:32:58.468Z,102008.97
2022-10-11T03:35:01.879Z,102012.69
2022-10-11T03:37:05.231Z,102011.88
2022-10-11T03:39:09.962Z,102022.47
2022-10-11T03:41:13.421Z,102021.06
2022-10-11T03:43:17.200Z,102023.41
2022-10-11T03:45:20.725Z,102019.44
2022-10-11T03:47:24.900Z,102020.00
2022-10-11T03:49:28.199Z,101993.00
2022-10-11T03:51:32.247Z,102017.88
2022-10-11T03:53:35.563Z,102022.03
2022-10-11T03:55:41.051Z,102018.44
2022-10-11T03:57:44.553Z,102017.53
2022-10-11T03:59:48.625Z,102025.50
2022-10-11T04:01:51.977Z,102024.59
2022-10-11T04:03:56.554Z,102024.66
2022-10-11T04:05:59.981Z,102027.84
2022-10-11T04:08:04.650Z,102022.75
2022-10-11T04:10:10.171Z,102024.91
2022-10-11T04:12:14.887Z,102027.91
2022-10-11T04:14:18.234Z,102022.69
2022-10-11T04:16:21.508Z,102027.84
2022-10-11T04:18:25.379Z,102030.00
2022-10-11T04:20:29.026Z,102037.72
2022-10-11T04:22:33.346Z,102027.56
2022-10-11T04:24:36.750Z,102035.38
2022-10-11T04:26:40.107Z,102043.97
2022-10-11T04:28:44.969Z,102040.94
2022-10-11T04:30:48.390Z,102043.16
2022-10-11T04:32:51.684Z,102043.22
2022-10-11T04:34:55.192Z,102047.16
2022-10-11T04:36:58.685Z,102044.97
2022-10-11T04:39:02.004Z,102040.97
2022-10-11T04:41:09.196Z,102044.97
2022-10-11T04:43:12.554Z,102046.78
2022-10-11T04:45:17.458Z,102043.25
2022-10-11T04:47:20.993Z,102047.97
2022-10-11T04:49:24.893Z,102047.13
2022-10-11T04:51:28.778Z,102044.69
2022-10-11T04:53:32.180Z,102054.59
2022-10-11T04:55:35.460Z,102056.38
2022-10-11T04:57:38.788Z,102046.53
2022-10-11T04:59:45.447Z,102045.81
2022-10-11T05:01:52.605Z,102047.59
2022-10-11T05:03:56.008Z,102052.78
2022-10-11T05:06:04.514Z,102050.59
2022-10-11T05:08:09.525Z,102047.69
2022-10-11T05:10:12.921Z,102055.59
2022-10-11T05:12:16.940Z,102056.91
2022-10-11T05:14:20.288Z,102052.94
2022-10-11T05:16:24.304Z,101993.69
2022-10-11T05:18:29.358Z,102072.94
2022-10-11T05:20:32.645Z,102062.06
2022-10-11T05:22:35.929Z,102068.81
2022-10-11T05:24:39.468Z,102075.97
2022-10-11T05:26:42.957Z,102073.38
2022-10-11T05:28:47.145Z,102078.03
2022-10-11T05:30:50.760Z,102081.13
2022-10-11T05:32:54.088Z,102083.38
2022-10-11T05:34:58.867Z,102095.25
2022-10-11T05:37:02.309Z,102097.38
2022-10-11T05:39:05.647Z,102099.06
2022-10-11T05:41:10.001Z,102040.22
2022-10-11T05:43:13.412Z,102101.78
2022-10-11T05:45:16.803Z,102102.69
2022-10-11T05:47:20.346Z,102102.28
2022-10-11T05:49:23.742Z,102099.03
2022-10-11T05:51:28.436Z,102094.53
2022-10-11T05:53:32.707Z,102109.09
2022-10-11T05:55:39.947Z,102105.16
2022-10-11T05:57:44.303Z,102106.34
2022-10-11T05:59:47.687Z,102109.94
2022-10-11T06:01:51.034Z,102104.97
2022-10-11T06:03:55.806Z,102113.41
2022-10-11T06:06:02.959Z,102113.44
2022-10-11T06:08:09.979Z,102115.19
2022-10-11T06:10:13.320Z,102113.94
2022-10-11T06:12:17.208Z,102125.00
2022-10-11T06:14:20.523Z,102122.50
2022-10-11T06:16:23.886Z,102122.81
2022-10-11T06:18:27.190Z,102131.72
2022-10-11T06:20:30.512Z,102129.00
2022-10-11T06:22:33.870Z,102120.38
2022-10-11T06:24:38.652Z,102133.84
2022-10-11T06:26:41.977Z,102143.94
2022-10-11T06:28:45.533Z,102147.75
2022-10-11T06:30:48.914Z,102138.63
2022-10-11T06:32:52.231Z,102140.94
2022-10-11T06:34:55.618Z,102144.28
2022-10-11T06:36:58.953Z,102153.88
2022-10-11T06:39:02.365Z,102153.69
2022-10-11T06:41:17.111Z,102141.88
2022-10-11T06:43:20.679Z,102157.88
2022-10-11T06:45:24.030Z,102156.72
2022-10-11T06:47:27.439Z,102158.25
2022-10-11T06:49:30.745Z,102151.94
2022-10-11T06:51:35.617Z,102160.00
2022-10-11T06:53:39.093Z,102169.00
2022-10-11T06:55:42.387Z,102165.13
2022-10-11T06:57:47.076Z,102162.44
2022-10-11T06:59:50.358Z,102164.13
2022-10-11T07:01:53.727Z,102170.59
2022-10-11T07:04:00.691Z,102170.66
2022-10-11T07:06:05.797Z,102179.53
2022-10-11T07:08:09.560Z,102187.75
2022-10-11T07:10:12.846Z,102180.97
2022-10-11T07:12:17.058Z,102185.25
2022-10-11T07:14:21.728Z,102193.56
2022-10-11T07:16:26.197Z,102189.09
2022-10-11T07:18:29.546Z,102187.75
2022-10-11T07:20:33.115Z,102192.31
2022-10-11T07:22:36.600Z,102196.63
2022-10-11T07:24:39.969Z,102197.88
2022-10-11T07:26:43.341Z,102204.53
2022-10-11T07:28:47.507Z,102203.06
2022-10-11T07:30:52.707Z,102194.31
2022-10-11T07:32:56.291Z,102206.41
2022-10-11T07:34:59.636Z,102163.25
2022-10-11T07:37:02.936Z,102197.53
2022-10-11T07:39:07.930Z,102214.03
2022-10-11T07:41:11.530Z,102209.16
2022-10-11T07:43:15.439Z,102181.53
2022-10-11T07:45:19.075Z,102207.41
2022-10-11T07:47:24.030Z,102209.34
2022-10-11T07:49:28.477Z,102214.47
2022-10-11T07:51:31.802Z,102220.66
2022-10-11T07:53:39.681Z,102215.72
2022-10-11T07:55:42.977Z,102217.78
2022-10-11T07:57:46.308Z,102214.91
2022-10-11T07:59:50.451Z,102220.25
2022-10-11T08:01:53.890Z,102217.47
2022-10-11T08:03:59.341Z,102210.78
2022-10-11T08:06:05.053Z,102208.06
2022-10-11T08:08:11.441Z,102224.31
2022-10-11T08:10:14.747Z,102217.06
2022-10-11T08:12:18.087Z,102218.94
2022-10-11T08:14:21.778Z,102218.41
2022-10-11T08:16:25.423Z,102228.81
2022-10-11T08:18:28.737Z,102224.47
2022-10-11T08:20:33.419Z,102233.19
2022-10-11T08:22:36.735Z,102232.22
2022-10-11T08:24:40.075Z,102234.44
2022-10-11T08:26:44.219Z,102238.69
2022-10-11T08:28:47.701Z,102236.19
2022-10-11T08:30:51.975Z,102234.50
2022-10-11T08:32:55.310Z,102236.19
2022-10-11T08:34:58.650Z,102237.22
2022-10-11T08:37:03.413Z,102236.94
2022-10-11T08:39:07.764Z,102241.97
2022-10-11T08:41:29.347Z,102237.84
2022-10-11T08:43:41.696Z,102233.09
2022-10-11T08:45:51.297Z,102248.41
2022-10-11T08:48:03.414Z,102248.22
2022-10-11T08:50:08.978Z,102187.00
2022-10-11T08:52:19.204Z,102252.78
2022-10-11T08:54:31.369Z,102244.63
2022-10-11T08:56:38.696Z,102245.19
2022-10-11T08:58:47.715Z,102242.31
2022-10-11T09:00:54.161Z,102243.00
2022-10-11T09:03:09.581Z,102242.88
2022-10-11T09:05:16.732Z,102248.09
2022-10-11T09:07:34.112Z,102243.72
2022-10-11T09:09:55.619Z,102253.41
2022-10-11T09:12:11.228Z,102252.34
2022-10-11T09:14:39.315Z,102233.13
2022-10-11T09:16:54.545Z,102247.97
2022-10-11T09:19:20.949Z,102250.81
2022-10-11T09:21:41.980Z,102244.72
2022-10-11T09:24:23.087Z,102248.47
2022-10-11T09:26:29.852Z,102240.72
2022-10-11T09:28:44.334Z,102249.69
2022-10-11T09:30:50.234Z,102235.81
2022-10-11T09:33:03.769Z,102243.84
2022-10-11T09:35:13.513Z,102250.59
2022-10-11T09:37:23.539Z,102251.66
2022-10-11T09:39:31.253Z,102249.38
2022-10-11T09:41:40.041Z,102252.06
2022-10-11T09:43:48.439Z,102250.09
2022-10-11T09:45:51.904Z,102248.72
2022-10-11T09:47:58.102Z,102255.16
2022-10-11T09:50:04.801Z,102243.56
2022-10-11T09:52:16.449Z,102257.09
2022-10-11T09:54:27.217Z,102248.94
2022-10-11T09:56:34.626Z,102263.38
2022-10-11T09:58:38.646Z,102256.59
2022-10-11T10:00:42.011Z,102262.97
2022-10-11T10:02:47.514Z,102271.34
2022-10-11T10:05:16.346Z,102254.47
2022-10-11T10:07:19.729Z,102267.50
2022-10-11T10:09:28.426Z,102259.19
2022-10-11T10:11:37.911Z,102260.91
2022-10-11T10:13:47.770Z,102267.44
2022-10-11T10:15:53.542Z,102267.94
2022-10-11T10:17:57.395Z,102263.75
2022-10-11T10:20:01.407Z,102259.13
2022-10-11T10:22:04.768Z,102259.34
2022-10-11T10:24:17.954Z,102257.13
2022-10-11T10:26:23.285Z,102256.47
2022-10-11T10:28:28.598Z,102262.91
2022-10-11T10:30:35.576Z,102257.94
2022-10-11T10:32:53.279Z,102245.13
2022-10-11T10:35:03.978Z,102260.94
2022-10-11T10:37:19.040Z,102236.13
2022-10-11T10:39:31.793Z,102258.81
2022-10-11T10:41:35.991Z,102250.97
2022-10-11T10:43:42.800Z,102243.38
2022-10-11T10:46:16.588Z,102252.63
2022-10-11T10:48:48.155Z,102246.25
2022-10-11T10:50:59.485Z,102241.00
2022-10-11T10:53:16.963Z,102248.63
2022-10-11T10:55:26.796Z,102246.19
2022-10-11T10:57:37.384Z,102235.47
2022-10-11T11:00:03.758Z,102248.00
2022-10-11T11:02:39.010Z,102243.53
2022-10-11T11:04:38.883Z,102242.84
2022-10-11T11:06:50.703Z,102236.22
2022-10-11T11:09:06.725Z,102234.97
2022-10-11T11:11:26.219Z,102235.28
2022-10-11T11:13:39.106Z,102235.47
2022-10-11T11:15:47.604Z,102236.69
2022-10-11T11:18:02.495Z,102226.97
2022-10-11T11:20:24.666Z,102227.38
2022-10-11T11:22:36.936Z,102214.63
2022-10-11T11:24:48.446Z,102230.94
2022-10-11T11:27:02.803Z,102220.25
2022-10-11T11:29:25.679Z,102215.44
2022-10-11T11:31:50.843Z,102207.72
2022-10-11T11:34:04.019Z,102215.78
2022-10-11T11:36:14.673Z,102199.25
2022-10-11T11:38:29.347Z,102210.84
2022-10-11T11:40:38.249Z,102208.53
2022-10-11T11:42:46.359Z,102206.53
2022-10-11T11:44:51.362Z,102208.09
2022-10-11T11:47:01.364Z,102199.22
2022-10-11T11:49:13.284Z,102204.41
2022-10-11T11:51:21.021Z,102202.25
2022-10-11T11:53:32.994Z,102195.34
2022-10-11T11:55:44.397Z,102194.94
2022-10-11T11:57:57.435Z,102195.78
2022-10-11T12:00:06.269Z,102196.66
2022-10-11T12:02:34.420Z,102192.69
2022-10-11T12:04:42.066Z,102186.19
2022-10-11T12:07:11.181Z,102189.00
2022-10-11T12:09:21.557Z,102179.63
2022-10-11T12:11:31.668Z,102160.38
2022-10-11T12:13:39.673Z,102181.50
2022-10-11T12:16:09.645Z,102171.44
2022-10-11T12:18:18.213Z,102174.00
2022-10-11T12:20:25.275Z,102177.50
2022-10-11T12:22:58.197Z,102173.25
2022-10-11T12:25:22.580Z,102170.41
2022-10-11T12:27:40.643Z,102162.47
2022-10-11T12:29:48.882Z,102158.31
2022-10-11T12:32:14.064Z,102163.59
2022-10-11T12:34:35.884Z,102156.19
2022-10-11T12:36:41.229Z,102161.84
2022-10-11T12:38:44.503Z,102160.69
2022-10-11T12:40:49.474Z,102153.94
2022-10-11T12:43:12.194Z,102151.97
2022-10-11T12:45:35.409Z,102142.31
2022-10-11T12:47:44.400Z,102144.69
2022-10-11T12:50:00.031Z,102140.56
2022-10-11T12:52:06.906Z,102134.63
2022-10-11T12:54:31.029Z,102139.09
2022-10-11T12:56:47.994Z,102137.78
2022-10-11T12:58:51.370Z,102137.28
2022-10-11T13:01:34.064Z,102136.06
2022-10-11T13:03:41.298Z,102126.16
2022-10-11T13:05:52.466Z,102127.28
2022-10-11T13:08:00.081Z,102130.19
2022-10-11T13:10:05.421Z,102126.72
2022-10-11T13:12:14.512Z,102117.91
2022-10-11T13:14:20.988Z,102117.94
2022-10-11T13:16:27.017Z,102118.97
2022-10-11T13:18:30.507Z,102122.38
2022-10-11T13:20:38.775Z,102125.66
2022-10-11T13:22:49.329Z,102126.69
2022-10-11T13:24:57.071Z,102127.91
2022-10-11T13:27:00.392Z,102125.28
2022-10-11T13:29:03.821Z,102116.06
2022-10-11T13:31:07.895Z,102120.84
2022-10-11T13:33:20.388Z,102126.34
2022-10-11T13:35:30.450Z,102121.94
2022-10-11T13:37:43.443Z,102116.31
2022-10-11T13:39:49.843Z,102114.59
2022-10-11T13:41:53.545Z,102117.81
2022-10-11T13:43:59.201Z,102110.19
2022-10-11T13:46:05.062Z,102115.31
2022-10-11T13:48:15.961Z,102111.94
2022-10-11T13:50:30.598Z,102111.94
2022-10-11T13:52:35.050Z,102110.19
2022-10-11T13:55:09.100Z,102112.31
2022-10-11T13:57:14.255Z,102102.44
2022-10-11T13:59:21.650Z,102107.38
2022-10-11T14:01:27.861Z,102095.09
2022-10-11T14:03:39.992Z,102094.59
2022-10-11T14:05:45.973Z,102102.25
2022-10-11T14:07:49.362Z,102102.13
2022-10-11T14:09:53.274Z,102103.06
2022-10-11T14:12:30.018Z,102102.50
2022-10-11T14:14:43.637Z,102096.06
2022-10-11T14:16:56.544Z,102088.44
2022-10-11T14:19:11.530Z,102086.13
2022-10-11T14:21:30.876Z,102085.88
2022-10-11T14:23:34.209Z,102082.88
2022-10-11T14:25:37.569Z,102077.06
2022-10-11T14:27:42.677Z,102079.63
2022-10-11T14:30:00.433Z,102068.56
2022-10-11T14:32:15.948Z,102083.06
2022-10-11T14:34:22.003Z,102082.25
2022-10-11T14:36:26.137Z,102074.88
2022-10-11T14:38:29.576Z,102077.56
2022-10-11T14:40:33.042Z,102082.59
2022-10-11T14:42:36.324Z,102080.88
2022-10-11T14:44:41.082Z,102080.28
2022-10-11T14:46:45.188Z,102075.16
2022-10-11T14:48:56.707Z,102069.97
2022-10-11T14:51:03.619Z,102072.63
2022-10-11T14:53:08.470Z,102070.78
2022-10-11T14:55:11.866Z,102072.59
2022-10-11T14:57:15.204Z,102067.28
2022-10-11T14:59:22.041Z,102072.63
2022-10-11T15:01:26.838Z,102069.91
2022-10-11T15:03:31.715Z,102074.47
2022-10-11T15:05:36.183Z,102069.06
2022-10-11T15:07:39.517Z,102058.19
2022-10-11T15:09:42.831Z,102055.56
2022-10-11T15:11:46.126Z,102058.16
2022-10-11T15:13:50.527Z,102049.97
2022-10-11T15:15:53.805Z,102057.75
2022-10-11T15:17:59.947Z,102053.09
2022-10-11T15:20:08.361Z,102062.69
2022-10-11T15:22:11.652Z,102061.47
2022-10-11T15:24:15.669Z,102055.91
2022-10-11T15:26:24.558Z,102054.84
2022-10-11T15:28:31.318Z,102054.56
2022-10-11T15:30:40.953Z,102054.16
2022-10-11T15:32:46.575Z,102061.16
2022-10-11T15:34:51.287Z,102061.53
2022-10-11T15:36:54.644Z,102056.88
2022-10-11T15:38:58.285Z,102059.44
2022-10-11T15:41:01.972Z,102053.09
2022-10-11T15:43:05.534Z,102051.91
2022-10-11T15:45:09.954Z,102043.16
2022-10-11T15:47:13.359Z,102005.31
2022-10-11T15:49:17.492Z,102041.66
2022-10-11T15:51:24.815Z,102040.59
2022-10-11T15:53:31.213Z,102041.25
2022-10-11T15:55:37.832Z,102047.09
2022-10-11T15:57:41.118Z,102044.34
2022-10-11T15:59:44.386Z,102037.09
2022-10-11T16:01:50.644Z,102039.44
2022-10-11T16:03:54.143Z,102036.88
2022-10-11T16:06:03.863Z,102033.28
2022-10-11T16:08:11.003Z,102042.00
2022-10-11T16:10:14.455Z,102033.69
2022-10-11T16:12:17.710Z,102031.78
2022-10-11T16:14:21.041Z,102033.56
2022-10-11T16:16:24.522Z,102037.09
2022-10-11T16:18:32.651Z,102037.84
2022-10-11T16:20:39.036Z,102030.81
2022-10-11T16:22:42.917Z,102021.94
2022-10-11T16:24:47.697Z,102037.84
2022-10-11T16:26:51.028Z,102037.69
2022-10-11T16:28:56.557Z,102034.91
2022-10-11T16:31:01.505Z,102044.63
2022-10-11T16:33:04.938Z,102041.16
2022-10-11T16:35:09.403Z,102039.28
2022-10-11T16:37:13.788Z,101999.09
2022-10-11T16:39:19.477Z,102034.44
2022-10-11T16:41:24.145Z,102048.44
2022-10-11T16:43:27.594Z,102039.69
2022-10-11T16:45:32.400Z,102034.28
2022-10-11T16:47:35.861Z,102044.72
2022-10-11T16:49:39.363Z,102045.53
2022-10-11T16:51:42.849Z,102041.88
2022-10-11T16:53:48.720Z,102042.63
2022-10-11T16:55:52.372Z,102042.47
2022-10-11T16:57:57.173Z,102038.78
2022-10-11T17:00:00.516Z,102044.75
2022-10-11T17:02:05.073Z,102046.31
2022-10-11T17:04:08.816Z,102035.59
2022-10-11T17:06:12.270Z,102039.78
2022-10-11T17:08:15.543Z,102033.41
2022-10-11T17:10:19.014Z,102044.72
2022-10-11T17:12:24.304Z,102032.03
2022-10-11T17:14:29.460Z,102034.78
2022-10-11T17:16:33.017Z,102036.38
2022-10-11T17:18:36.779Z,102036.22
2022-10-11T17:20:40.100Z,102043.06
2022-10-11T17:22:43.399Z,102034.03
2022-10-11T17:24:47.576Z,102038.28
2022-10-11T17:26:52.711Z,102030.28
2022-10-11T17:28:58.332Z,102021.25
2022-10-11T17:31:04.983Z,102029.75
2022-10-11T17:33:08.955Z,102032.22
2022-10-11T17:35:13.484Z,102037.09
2022-10-11T17:37:16.823Z,102035.22
2022-10-11T17:39:22.314Z,102034.13
2022-10-11T17:41:30.880Z,102039.06
2022-10-11T17:43:35.556Z,102007.91
2022-10-11T17:45:38.937Z,102046.66
2022-10-11T17:47:43.742Z,102037.78
2022-10-11T17:49:47.319Z,102034.88
2022-10-11T17:51:50.638Z,102036.56
2022-10-11T17:53:54.853Z,102036.38
2022-10-11T17:56:00.764Z,102036.34
2022-10-11T17:58:04.343Z,102038.75
2022-10-11T18:00:08.861Z,102052.41
2022-10-11T18:02:12.244Z,102040.72
2022-10-11T18:04:17.734Z,102038.09
2022-10-11T18:06:21.021Z,102042.41
2022-10-11T18:08:24.431Z,102039.34
2022-10-11T18:10:28.471Z,102036.91
2022-10-11T18:12:31.862Z,102014.19
2022-10-11T18:14:35.219Z,102030.47
2022-10-11T18:16:39.554Z,102028.34
2022-10-11T18:18:44.237Z,102028.63
2022-10-11T18:20:50.463Z,102034.97
2022-10-11T18:22:54.335Z,102020.06
2022-10-11T18:24:57.787Z,102029.53
2022-10-11T18:27:01.158Z,102023.31
2022-10-11T18:29:05.338Z,102028.44
2022-10-11T18:31:12.881Z,102020.38
2022-10-11T18:33:18.477Z,102010.41
2022-10-11T18:35:21.782Z,102027.63
2022-10-11T18:37:26.770Z,102027.50
2022-10-11T18:39:30.103Z,102020.25
2022-10-11T18:41:35.194Z,102030.41
2022-10-11T18:43:38.778Z,102024.75
2022-10-11T18:45:42.093Z,102028.56
2022-10-11T18:47:45.487Z,102032.63
2022-10-11T18:49:49.194Z,102033.06
2022-10-11T18:51:52.476Z,102027.22
2022-10-11T18:53:58.595Z,102033.41
2022-10-11T18:56:03.019Z,102031.03
2022-10-11T18:58:06.742Z,102029.41
2022-10-11T19:00:30.795Z,102034.56
2022-10-11T19:02:34.961Z,102028.69
2022-10-11T19:04:39.721Z,102035.63
2022-10-11T19:06:45.508Z,102010.63
2022-10-11T19:08:51.298Z,102033.94
2022-10-11T19:10:55.976Z,102026.63
2022-10-11T19:12:59.457Z,102032.47
2022-10-11T19:15:02.762Z,102029.22
2022-10-11T19:17:06.694Z,102007.13
2022-10-11T19:19:13.091Z,102038.31
2022-10-11T19:21:16.480Z,102035.03
2022-10-11T19:23:23.527Z,102031.56
2022-10-11T19:25:26.840Z,102031.13
2022-10-11T19:27:31.632Z,102030.84
2022-10-11T19:29:34.941Z,102025.91
2022-10-11T19:31:43.062Z,102031.63
2022-10-11T19:33:49.399Z,102026.53
2022-10-11T19:35:55.681Z,102018.28
2022-10-11T19:37:58.944Z,102030.94
2022-10-11T19:40:03.915Z,102026.94
2022-10-11T19:42:07.469Z,102033.13
2022-10-11T19:44:13.087Z,102015.50
2022-10-11T19:46:37.873Z,102027.13
2022-10-11T19:48:44.989Z,102025.84
2022-10-11T19:50:48.522Z,102028.41
2022-10-11T19:52:51.836Z,102020.72
2022-10-11T19:54:55.164Z,102026.09
2022-10-11T19:56:58.473Z,102011.53
2022-10-11T19:59:02.445Z,102028.66
2022-10-11T20:01:09.964Z,102029.13
2022-10-11T20:03:13.313Z,102028.13
2022-10-11T20:05:16.749Z,102031.28
2022-10-11T20:07:20.145Z,102032.06
2022-10-11T20:09:29.620Z,102033.00
2022-10-11T20:11:33.975Z,102034.44
2022-10-11T20:13:38.419Z,102026.53
2022-10-11T20:15:42.025Z,102028.06
2022-10-11T20:17:49.979Z,102027.09
2022-10-11T20:19:53.482Z,102022.03
2022-10-11T20:21:57.126Z,102030.13
2022-10-11T20:24:02.277Z,102030.13
2022-10-11T20:26:08.143Z,102029.13
2022-10-11T20:28:11.630Z,102037.13
2022-10-11T20:30:14.990Z,102030.03
2022-10-11T20:32:18.464Z,102031.56
2022-10-11T20:34:23.424Z,102012.72
2022-10-11T20:36:29.468Z,102029.25
2022-10-11T20:38:34.647Z,102031.66
2022-10-11T20:40:41.182Z,102028.00
2022-10-11T20:42:44.563Z,102028.78
2022-10-11T20:44:49.334Z,102019.28
2022-10-11T20:46:52.743Z,102023.59
2022-10-11T20:49:01.342Z,102022.56
2022-10-11T20:51:07.854Z,101996.44
2022-10-11T20:53:16.164Z,102025.00
2022-10-11T20:55:21.003Z,102028.41
2022-10-11T20:57:24.470Z,102036.06
2022-10-11T20:59:29.993Z,102030.97
2022-10-11T21:01:35.591Z,102032.59
2022-10-11T21:03:39.217Z,102034.13
2022-10-11T21:05:42.917Z,102021.13
2022-10-11T21:07:50.150Z,102025.53
2022-10-11T21:09:55.420Z,102027.91
2022-10-11T21:11:58.742Z,102012.72
2022-10-11T21:14:05.345Z,102026.91
2022-10-11T21:16:11.887Z,101966.78
2022-10-11T21:18:15.964Z,102029.06
2022-10-11T21:20:19.622Z,102020.50
2022-10-11T21:22:22.931Z,102027.25
2022-10-11T21:24:28.014Z,102034.91
2022-10-11T21:26:31.893Z,102020.91
2022-10-11T21:28:35.445Z,102022.84
2022-10-11T21:30:38.949Z,102015.84
2022-10-11T21:32:42.349Z,102017.13
2022-10-11T21:34:46.317Z,102020.97
2022-10-11T21:36:49.588Z,102019.13
2022-10-11T21:38:53.976Z,101988.88
2022-10-11T21:40:58.707Z,102020.03
2022-10-11T21:43:02.137Z,102010.53
2022-10-11T21:45:06.384Z,102006.22
2022-10-11T21:47:10.167Z,102011.59
2022-10-11T21:49:13.561Z,102011.97
2022-10-11T21:51:20.669Z,102011.97
2022-10-11T21:53:23.927Z,101997.50
2022-10-11T21:55:28.131Z,102017.44
2022-10-11T21:57:33.117Z,102019.13
2022-10-11T21:59:36.471Z,102008.97
2022-10-11T22:01:40.154Z,102011.88
2022-10-11T22:03:43.536Z,102006.41
2022-10-11T22:05:47.770Z,102009.03
2022-10-11T22:07:51.077Z,102014.19
2022-10-11T22:09:54.419Z,102017.88
2022-10-11T22:11:58.063Z,102016.69
2022-10-11T22:14:02.828Z,102017.28
2022-10-11T22:16:07.432Z,102017.06
2022-10-11T22:18:10.785Z,102014.69
2022-10-11T22:20:14.503Z,102013.94
2022-10-11T22:22:17.881Z,102017.38
2022-10-11T22:24:21.217Z,102024.94
2022-10-11T22:26:26.705Z,102018.78
2022-10-11T22:28:30.098Z,102017.78
2022-10-11T22:30:35.128Z,102004.22
2022-10-11T22:32:38.647Z,102005.28
2022-10-11T22:34:42.012Z,102007.72
2022-10-11T22:36:45.295Z,102012.19
2022-10-11T22:38:48.631Z,102020.22
2022-10-11T22:40:52.379Z,102015.91
2022-10-11T22:42:55.800Z,102019.28
2022-10-11T22:44:59.122Z,101949.16
2022-10-11T22:47:03.750Z,102018.47
2022-10-11T22:49:07.324Z,102026.50
2022-10-11T22:51:10.793Z,102015.88
2022-10-11T22:53:15.189Z,102015.13
2022-10-11T22:55:20.295Z,102015.03
2022-10-11T22:57:23.827Z,101949.09
2022-10-11T22:59:27.167Z,102013.16
2022-10-11T23:01:30.451Z,102005.34
2022-10-11T23:03:35.148Z,102007.06
2022-10-11T23:05:38.603Z,102004.25
2022-10-11T23:07:41.999Z,102010.41
2022-10-11T23:09:45.330Z,102007.75
2022-10-11T23:11:48.635Z,102015.41
2022-10-11T23:13:53.107Z,102009.84
2022-10-11T23:15:56.637Z,102015.03
2022-10-11T23:17:59.951Z,102004.09
2022-10-11T23:20:05.882Z,102009.50
2022-10-11T23:22:09.319Z,102008.63
2022-10-11T23:24:12.679Z,102029.28
2022-10-11T23:26:17.690Z,102025.97
2022-10-11T23:28:21.049Z,102019.94
2022-10-11T23:30:24.322Z,102027.75
2022-10-11T23:32:29.458Z,102012.28
2022-10-11T23:34:32.883Z,102016.78
2022-10-11T23:36:37.531Z,102011.25
2022-10-11T23:38:40.889Z,101999.09
2022-10-11T23:40:44.213Z,102018.06
2022-10-11T23:42:47.550Z,102010.03
2022-10-11T23:44:52.762Z,102014.56
2022-10-11T23:46:56.102Z,102016.28
2022-10-11T23:49:04.934Z,102014.91
2022-10-11T23:51:08.677Z,102013.69
2022-10-11T23:53:14.270Z,102020.19
2022-10-11T23:55:18.084Z,101996.84
2022-10-11T23:57:21.382Z,102007.41
2022-10-11T23:59:24.696Z,102020.66
